Time;durP1;ratioP1;P1;durP2;ratioP2;P2;SDS_P1;SDS_P2;PMS_P1;PMS_P2;Temp;Humidity;BMP_temperature;BMP_pressure;BME280_temperature;BME280_humidity;BME280_pressure;Samples;Min_cycle;Max_cycle;Signal;HPM_P1;HPM_P2
2022/09/14 00:00:58;;;;;;;14.73;10.70;;;18.20;99.90;;;;;;4901288;29;20418;-75
2022/09/14 00:03:24;;;;;;;9.97;8.97;;;18.20;99.90;;;;;;4900020;29;20405;-76
2022/09/14 00:05:49;;;;;;;11.40;10.30;;;18.20;99.90;;;;;;4900909;29;20206;-76
2022/09/14 00:08:15;;;;;;;14.87;10.70;;;18.20;99.90;;;;;;4901173;29;20245;-75
2022/09/14 00:10:43;;;;;;;22.10;11.20;;;18.10;99.90;;;;;;4901022;29;20589;-75
2022/09/14 00:13:09;;;;;;;13.90;12.13;;;18.10;99.90;;;;;;4900976;29;20580;-76
2022/09/14 00:15:37;;;;;;;18.00;12.80;;;18.00;99.90;;;;;;4900499;29;20823;-75
2022/09/14 00:18:03;;;;;;;18.53;12.77;;;18.10;99.90;;;;;;4900876;29;20423;-75
2022/09/14 00:20:30;;;;;;;11.73;10.43;;;18.10;99.90;;;;;;4900916;29;20427;-76
2022/09/14 00:22:56;;;;;;;13.77;11.30;;;18.10;99.90;;;;;;4900805;29;20448;-75
2022/09/14 00:25:22;;;;;;;18.70;11.53;;;18.10;99.90;;;;;;4900338;29;20442;-75
2022/09/14 00:27:47;;;;;;;17.00;12.13;;;18.10;99.90;;;;;;4900438;29;20225;-75
2022/09/14 00:30:13;;;;;;;15.60;11.60;;;18.00;99.90;;;;;;4900603;29;20214;-75
2022/09/14 00:32:38;;;;;;;15.13;11.80;;;17.90;99.90;;;;;;4900626;29;20234;-75
2022/09/14 00:35:05;;;;;;;17.17;11.73;;;18.00;99.90;;;;;;4900277;29;20175;-75
2022/09/14 00:37:30;;;;;;;14.83;11.80;;;18.00;99.90;;;;;;4900185;29;20314;-76
2022/09/14 00:39:56;;;;;;;11.97;10.77;;;18.10;99.90;;;;;;4900440;29;20492;-76
2022/09/14 00:42:22;;;;;;;12.77;11.47;;;18.10;99.90;;;;;;4900627;29;20179;-75
2022/09/14 00:44:47;;;;;;;15.43;11.83;;;18.10;99.90;;;;;;4900117;29;20447;-75
2022/09/14 00:47:15;;;;;;;13.87;12.07;;;18.10;99.90;;;;;;4900542;29;20198;-75
2022/09/14 00:49:42;;;;;;;18.40;11.67;;;18.00;99.90;;;;;;4899212;29;20285;-75
2022/09/14 00:52:27;;;;;;;19.33;12.30;;;17.90;99.90;;;;;;4900439;29;20470;-75
2022/09/14 00:54:59;;;;;;;14.37;12.87;;;18.00;99.90;;;;;;4899952;29;20769;-75
2022/09/14 00:57:29;;;;;;;13.20;11.23;;;18.00;99.90;;;;;;4900388;29;20447;-75
2022/09/14 00:59:55;;;;;;;16.10;12.83;;;18.00;99.90;;;;;;4900025;29;20902;-75
2022/09/14 01:02:22;;;;;;;17.10;12.03;;;18.00;99.90;;;;;;4900179;29;20548;-75
2022/09/14 01:04:49;;;;;;;18.60;13.67;;;18.00;99.90;;;;;;4899691;29;20476;-75
2022/09/14 01:07:33;;;;;;;14.67;13.13;;;18.10;99.90;;;;;;4900053;29;20467;-75
2022/09/14 01:10:26;;;;;;;17.30;12.80;;;18.10;99.90;;;;;;4899733;29;20422;-75
2022/09/14 01:13:06;;;;;;;20.17;15.90;;;18.00;99.90;;;;;;4900041;29;20411;-75
2022/09/14 01:15:46;;;;;;;20.13;14.47;;;18.00;99.90;;;;;;4899659;29;20787;-75
2022/09/14 01:18:34;;;;;;;18.50;14.90;;;18.00;99.90;;;;;;4899840;29;20393;-75
2022/09/14 01:21:11;;;;;;;16.77;14.97;;;18.10;99.90;;;;;;4899955;29;20894;-75
2022/09/14 01:24:06;;;;;;;22.03;15.30;;;18.10;99.90;;;;;;4899617;29;20411;-75
2022/09/14 01:27:03;;;;;;;20.70;15.40;;;18.10;99.90;;;;;;4898465;29;20426;-75
2022/09/14 01:29:44;;;;;;;20.07;14.60;;;18.00;99.90;;;;;;4899766;29;20402;-75
2022/09/14 01:32:15;;;;;;;20.60;15.77;;;18.10;99.90;;;;;;4899591;29;20492;-74
2022/09/14 01:34:48;;;;;;;19.30;15.20;;;18.10;99.90;;;;;;4899175;29;20430;-75
2022/09/14 01:37:38;;;;;;;15.83;13.93;;;18.10;99.90;;;;;;4899360;29;20442;-74
2022/09/14 01:40:16;;;;;;;17.13;14.80;;;18.20;99.90;;;;;;4899340;29;20756;-75
2022/09/14 01:42:47;;;;;;;18.93;16.33;;;18.10;99.90;;;;;;4899454;29;20443;-74
2022/09/14 01:45:16;;;;;;;24.67;18.23;;;18.10;99.90;;;;;;4899280;29;20506;-74
2022/09/14 01:47:55;;;;;;;24.00;17.60;;;18.00;99.90;;;;;;4899311;29;20450;-74
2022/09/14 01:50:45;;;;;;;24.77;16.53;;;17.90;99.90;;;;;;4899080;29;20499;-74
2022/09/14 01:53:37;;;;;;;22.33;16.67;;;17.90;99.90;;;;;;4899389;29;20972;-74
2022/09/14 01:56:31;;;;;;;20.30;15.63;;;18.00;99.90;;;;;;4898689;29;20449;-74
2022/09/14 01:59:12;;;;;;;18.80;15.50;;;18.00;99.90;;;;;;4899034;29;20411;-75
2022/09/14 02:01:49;;;;;;;17.30;15.37;;;18.00;99.90;;;;;;4882555;29;20518;-74
2022/09/14 02:04:18;;;;;;;15.07;13.47;;;18.00;99.90;;;;;;4898875;29;20497;-74
2022/09/14 02:06:47;;;;;;;17.93;15.20;;;18.10;99.90;;;;;;4897806;29;20926;-74
2022/09/14 02:09:21;;;;;;;15.63;13.90;;;18.00;99.90;;;;;;4897982;29;20450;-74
2022/09/14 02:11:47;;;;;;;15.00;13.50;;;18.00;99.90;;;;;;4898919;29;20538;-74
2022/09/14 02:14:13;;;;;;;14.27;12.80;;;18.10;99.90;;;;;;4898515;29;20594;-75
2022/09/14 02:16:42;;;;;;;15.43;13.80;;;18.00;99.90;;;;;;4898693;29;20530;-74
2022/09/14 02:19:08;;;;;;;16.60;14.90;;;18.00;99.90;;;;;;4898828;29;20186;-75
2022/09/14 02:21:34;;;;;;;18.00;14.43;;;18.00;99.90;;;;;;4898702;29;20466;-75
2022/09/14 02:23:59;;;;;;;17.83;14.40;;;18.10;99.90;;;;;;4898246;29;20471;-75
2022/09/14 02:26:26;;;;;;;14.70;13.20;;;18.20;99.90;;;;;;4897442;29;20222;-75
2022/09/14 02:28:54;;;;;;;17.37;13.70;;;18.20;99.90;;;;;;4898564;29;20297;-74
2022/09/14 02:31:41;;;;;;;14.83;12.63;;;18.30;99.90;;;;;;4898514;29;20456;-74
2022/09/14 02:34:36;;;;;;;17.67;12.97;;;18.20;99.90;;;;;;4898150;29;20471;-75
2022/09/14 02:37:23;;;;;;;15.27;11.93;;;18.10;99.90;;;;;;4898369;29;20437;-75
2022/09/14 02:39:57;;;;;;;14.73;11.90;;;18.10;99.90;;;;;;4898400;29;20418;-74
2022/09/14 02:42:33;;;;;;;16.27;10.47;;;18.20;99.90;;;;;;4898294;29;20414;-75
2022/09/14 02:45:23;;;;;;;10.27;9.20;;;18.20;99.90;;;;;;4898047;29;20947;-75
2022/09/14 02:48:14;;;;;;;9.50;8.00;;;18.20;99.90;;;;;;4898254;29;20435;-74
2022/09/14 02:50:44;;;;;;;10.57;7.97;;;18.20;99.90;;;;;;4898167;29;20445;-75
2022/09/14 02:53:23;;;;;;;9.10;8.03;;;18.20;99.90;;;;;;4898514;29;20754;-75
2022/09/14 02:55:54;;;;;;;7.50;6.80;;;18.20;99.90;;;;;;4898071;29;20439;-75
2022/09/14 02:58:20;;;;;;;8.37;7.57;;;18.20;99.90;;;;;;4898222;29;20415;-75
2022/09/14 03:00:48;;;;;;;9.60;7.43;;;18.30;99.90;;;;;;4897039;29;20501;-75
2022/09/14 03:03:16;;;;;;;7.90;7.20;;;18.30;99.90;;;;;;4898259;29;20537;-75
2022/09/14 03:05:43;;;;;;;8.13;7.20;;;18.40;99.90;;;;;;4897893;29;20429;-75
2022/09/14 03:08:11;;;;;;;7.00;6.30;;;18.30;99.90;;;;;;4898186;29;20410;-75
2022/09/14 03:10:40;;;;;;;7.20;6.50;;;18.30;99.90;;;;;;4897980;29;20459;-75
2022/09/14 03:13:06;;;;;;;10.60;7.53;;;18.40;99.90;;;;;;4901234;29;20470;-75
2022/09/14 03:15:31;;;;;;;9.10;7.00;;;18.30;99.90;;;;;;4901718;29;20393;-75
2022/09/14 03:17:57;;;;;;;9.20;8.30;;;18.40;99.90;;;;;;4901985;29;20187;-75
2022/09/14 03:20:28;;;;;;;8.60;7.53;;;18.30;99.90;;;;;;4902140;29;20636;-75
2022/09/14 03:22:54;;;;;;;10.67;8.53;;;18.30;99.90;;;;;;4901887;29;20178;-75
2022/09/14 03:25:21;;;;;;;8.43;7.53;;;18.30;99.90;;;;;;4901690;29;20948;-75
2022/09/14 03:27:51;;;;;;;8.23;6.73;;;18.40;99.90;;;;;;4901761;29;20210;-76
2022/09/14 03:30:18;;;;;;;7.07;6.37;;;18.40;99.90;;;;;;4901847;29;20422;-74
2022/09/14 03:32:44;;;;;;;7.57;6.33;;;18.40;99.90;;;;;;4901683;29;20390;-74
2022/09/14 03:35:11;;;;;;;8.40;7.13;;;18.40;99.90;;;;;;4901386;29;20795;-76
2022/09/14 03:37:38;;;;;;;9.10;8.23;;;18.40;99.90;;;;;;4900290;29;20457;-75
2022/09/14 03:40:05;;;;;;;9.70;7.83;;;18.20;99.90;;;;;;4901615;29;20411;-76
2022/09/14 03:42:30;;;;;;;9.13;8.23;;;18.20;99.90;;;;;;4901621;29;20497;-75
2022/09/14 03:44:57;;;;;;;13.10;8.10;;;18.30;99.90;;;;;;4901097;29;20551;-76
2022/09/14 03:47:23;;;;;;;8.23;7.43;;;18.30;99.90;;;;;;4884475;29;20676;-75
2022/09/14 03:49:48;;;;;;;11.30;8.33;;;18.20;99.90;;;;;;4901632;29;20505;-76
2022/09/14 03:52:14;;;;;;;13.67;8.30;;;18.20;99.90;;;;;;4901547;29;21043;-75
2022/09/14 03:54:40;;;;;;;11.80;9.50;;;18.10;99.90;;;;;;4901243;29;20175;-75
2022/09/14 03:57:06;;;;;;;9.83;8.83;;;18.00;99.90;;;;;;4901225;29;20211;-75
2022/09/14 03:59:32;;;;;;;11.37;10.17;;;18.00;99.90;;;;;;4901265;29;20176;-75
2022/09/14 04:01:59;;;;;;;17.30;12.27;;;18.10;99.90;;;;;;4901067;29;20450;-75
2022/09/14 04:04:25;;;;;;;14.80;12.07;;;18.20;99.90;;;;;;4900901;29;20422;-75
2022/09/14 04:06:51;;;;;;;17.10;12.83;;;18.10;99.90;;;;;;4901212;29;20439;-74
2022/09/14 04:09:18;;;;;;;14.63;11.17;;;18.20;99.90;;;;;;4900860;29;20398;-74
2022/09/14 04:11:44;;;;;;;14.20;12.20;;;18.20;99.90;;;;;;4901247;29;20292;-75
2022/09/14 04:14:10;;;;;;;13.70;12.20;;;18.10;99.90;;;;;;4900929;29;20420;-75
2022/09/14 04:16:36;;;;;;;16.23;14.00;;;17.90;99.90;;;;;;4901067;29;20454;-75
2022/09/14 04:19:02;;;;;;;13.63;12.23;;;17.90;99.90;;;;;;4901126;29;20418;-76
2022/09/14 04:21:27;;;;;;;16.70;13.97;;;18.00;99.90;;;;;;4900648;29;20189;-75
2022/09/14 04:23:55;;;;;;;14.73;12.77;;;17.80;99.90;;;;;;4900117;29;20480;-76
2022/09/14 04:26:23;;;;;;;18.43;13.47;;;17.90;99.90;;;;;;4900767;29;20241;-76
2022/09/14 04:28:48;;;;;;;17.47;14.07;;;18.00;99.90;;;;;;4900617;29;20473;-75
2022/09/14 04:31:14;;;;;;;15.60;14.00;;;17.90;99.90;;;;;;4900511;29;20827;-75
2022/09/14 04:33:41;;;;;;;19.07;15.33;;;17.80;99.90;;;;;;4900621;29;20210;-75
2022/09/14 04:36:16;;;;;;;16.23;13.70;;;17.80;99.90;;;;;;4899112;29;20203;-76
2022/09/14 04:38:43;;;;;;;25.87;14.70;;;17.80;99.90;;;;;;4900530;29;20814;-75
2022/09/14 04:41:12;;;;;;;20.80;14.70;;;17.90;99.90;;;;;;4899430;29;20457;-76
2022/09/14 04:43:38;;;;;;;15.93;12.47;;;17.90;99.90;;;;;;4900409;29;20446;-75
2022/09/14 04:46:13;;;;;;;16.30;14.43;;;18.00;99.90;;;;;;4900061;29;20439;-75
2022/09/14 04:48:39;;;;;;;15.27;13.47;;;18.00;99.90;;;;;;4900473;29;20401;-75
2022/09/14 04:51:07;;;;;;;16.27;14.57;;;17.80;99.90;;;;;;4900008;29;20463;-75
2022/09/14 04:53:33;;;;;;;16.93;14.23;;;17.80;99.90;;;;;;4899746;29;20394;-76
2022/09/14 04:56:04;;;;;;;16.27;14.50;;;17.70;99.90;;;;;;4899888;29;20406;-76
2022/09/14 04:58:30;;;;;;;15.23;13.63;;;17.70;99.90;;;;;;4900495;29;20395;-76
2022/09/14 05:01:09;;;;;;;14.40;12.57;;;17.70;99.90;;;;;;4900373;29;20423;-76
2022/09/14 05:03:39;;;;;;;15.87;13.03;;;17.70;99.90;;;;;;4900058;29;20174;-76
2022/09/14 05:06:08;;;;;;;16.23;13.17;;;17.70;99.90;;;;;;4899367;29;20422;-76
2022/09/14 05:08:35;;;;;;;15.17;13.57;;;17.70;99.90;;;;;;4900064;29;20393;-76
2022/09/14 05:11:01;;;;;;;14.93;12.57;;;17.70;99.90;;;;;;4900078;29;20474;-76
2022/09/14 05:13:27;;;;;;;15.80;13.20;;;17.60;99.90;;;;;;4899966;29;20402;-74
2022/09/14 05:15:52;;;;;;;15.93;12.50;;;17.50;99.90;;;;;;4899438;29;20418;-76
2022/09/14 05:18:18;;;;;;;16.43;13.93;;;17.60;99.90;;;;;;4900144;29;20262;-76
2022/09/14 05:20:44;;;;;;;18.73;15.67;;;17.60;99.90;;;;;;4899861;29;20187;-75
2022/09/14 05:23:10;;;;;;;16.57;14.60;;;17.60;99.90;;;;;;4898607;29;20309;-76
2022/09/14 05:25:36;;;;;;;18.90;15.53;;;17.50;99.90;;;;;;4899431;29;20712;-75
2022/09/14 05:28:02;;;;;;;18.53;14.57;;;17.60;99.90;;;;;;4899378;29;20449;-76
2022/09/14 05:30:27;;;;;;;19.77;15.73;;;17.60;99.90;;;;;;4899799;29;20576;-76
2022/09/14 05:32:53;;;;;;;19.07;14.73;;;17.60;99.90;;;;;;4899665;29;20394;-75
2022/09/14 05:35:19;;;;;;;24.63;14.97;;;17.50;99.90;;;;;;4898614;29;20427;-75
2022/09/14 05:37:44;;;;;;;19.13;14.40;;;17.60;99.90;;;;;;4899214;29;20649;-75
2022/09/14 05:40:10;;;;;;;16.90;12.13;;;17.50;99.90;;;;;;4899431;29;20227;-75
2022/09/14 05:42:35;;;;;;;13.87;11.73;;;17.40;99.90;;;;;;4899435;29;20183;-75
2022/09/14 05:45:01;;;;;;;14.00;12.50;;;17.30;99.90;;;;;;4899004;29;20258;-76
2022/09/14 05:47:30;;;;;;;11.10;10.00;;;17.30;99.90;;;;;;4898120;29;20235;-76
2022/09/14 05:49:56;;;;;;;13.93;10.40;;;17.30;99.90;;;;;;4899119;29;20182;-76
2022/09/14 05:52:23;;;;;;;12.23;9.70;;;17.30;99.90;;;;;;4899154;29;20497;-76
2022/09/14 05:54:48;;;;;;;13.80;9.73;;;17.40;99.90;;;;;;4898835;29;20398;-75
2022/09/14 05:57:14;;;;;;;9.77;8.77;;;17.40;99.90;;;;;;4899140;29;20834;-77
2022/09/14 05:59:40;;;;;;;13.50;10.70;;;17.30;99.90;;;;;;4899279;29;20186;-76
2022/09/14 06:02:05;;;;;;;9.90;9.00;;;17.30;99.90;;;;;;4898910;29;20191;-75
2022/09/14 06:04:31;;;;;;;11.80;10.60;;;17.30;99.90;;;;;;4898664;29;20183;-76
2022/09/14 06:06:56;;;;;;;14.37;10.50;;;17.20;99.90;;;;;;4898913;29;20896;-76
2022/09/14 06:09:23;;;;;;;9.70;8.70;;;17.20;99.90;;;;;;4899000;29;20194;-77
2022/09/14 06:11:49;;;;;;;8.30;7.50;;;17.10;99.90;;;;;;4897875;29;20218;-76
2022/09/14 06:14:18;;;;;;;9.80;8.90;;;16.90;99.90;;;;;;4898632;29;20385;-75
2022/09/14 06:16:44;;;;;;;9.73;8.93;;;16.90;99.90;;;;;;4898958;29;20447;-76
2022/09/14 06:19:11;;;;;;;10.80;9.00;;;16.70;99.90;;;;;;4898852;29;20402;-76
2022/09/14 06:21:36;;;;;;;10.80;9.70;;;16.50;99.90;;;;;;4898856;29;20206;-75
2022/09/14 06:24:03;;;;;;;12.60;10.80;;;16.40;99.90;;;;;;4896997;29;20522;-75
2022/09/14 06:26:29;;;;;;;12.63;10.80;;;16.30;99.90;;;;;;4898520;29;20211;-75
2022/09/14 06:28:55;;;;;;;12.73;11.10;;;16.20;99.90;;;;;;4898589;29;20512;-75
2022/09/14 06:31:21;;;;;;;10.80;9.80;;;16.20;99.90;;;;;;4898582;29;20867;-75
2022/09/14 06:33:49;;;;;;;12.63;9.90;;;16.20;99.90;;;;;;4898090;29;20223;-75
2022/09/14 06:36:23;;;;;;;10.10;9.10;;;16.20;99.90;;;;;;4898335;29;20413;-75
2022/09/14 06:38:49;;;;;;;8.60;7.73;;;16.30;99.90;;;;;;4898439;29;20416;-75
2022/09/14 06:41:21;;;;;;;13.60;9.70;;;16.30;99.90;;;;;;4898242;29;20397;-75
2022/09/14 06:43:47;;;;;;;10.80;8.33;;;16.30;99.90;;;;;;4898116;29;20782;-76
2022/09/14 06:46:20;;;;;;;9.97;8.67;;;16.30;99.90;;;;;;4896817;29;20454;-75
2022/09/14 06:48:50;;;;;;;8.37;7.57;;;16.30;99.90;;;;;;4898313;29;20415;-75
2022/09/14 06:51:18;;;;;;;8.37;7.47;;;16.30;99.90;;;;;;4898129;29;20565;-75
2022/09/14 06:53:45;;;;;;;9.30;8.37;;;16.30;99.90;;;;;;4897944;29;20415;-75
2022/09/14 06:56:11;;;;;;;7.53;6.93;;;16.40;99.90;;;;;;4896701;29;20533;-75
2022/09/14 06:58:37;;;;;;;6.63;6.07;;;16.30;99.90;;;;;;4898132;29;20461;-75
2022/09/14 07:01:08;;;;;;;4.63;4.30;;;16.30;99.90;;;;;;4898178;29;20427;-75
2022/09/14 07:03:36;;;;;;;5.60;3.67;;;16.30;99.90;;;;;;4898117;29;20183;-75
2022/09/14 07:06:05;;;;;;;4.27;3.57;;;16.20;99.90;;;;;;4897938;29;20590;-75
2022/09/14 07:08:31;;;;;;;3.70;3.40;;;16.20;99.90;;;;;;4897978;29;20427;-75
2022/09/14 07:10:57;;;;;;;2.83;2.63;;;16.30;99.90;;;;;;4897811;29;20475;-75
2022/09/14 07:13:23;;;;;;;3.43;3.13;;;16.30;99.90;;;;;;4897880;29;20808;-75
2022/09/14 07:15:50;;;;;;;2.40;2.20;;;16.40;99.90;;;;;;4897501;29;20443;-74
2022/09/14 07:18:16;;;;;;;2.50;2.37;;;16.40;99.90;;;;;;4896911;29;20182;-75
2022/09/14 07:20:42;;;;;;;7.70;6.43;;;16.10;99.90;;;;;;4897728;29;20413;-75
2022/09/14 07:23:07;;;;;;;2.77;2.57;;;16.20;99.90;;;;;;4896828;29;20430;-75
2022/09/14 07:25:33;;;;;;;2.10;1.90;;;16.20;99.90;;;;;;4896408;29;20653;-75
2022/09/14 07:28:00;;;;;;;2.57;2.30;;;16.20;99.90;;;;;;4897983;29;20302;-75
2022/09/14 07:30:26;;;;;;;4.40;2.93;;;16.20;99.90;;;;;;4896829;29;20183;-75
2022/09/14 07:32:53;;;;;;;6.30;3.60;;;16.20;99.90;;;;;;4881129;29;20456;-74
2022/09/14 07:35:19;;;;;;;2.27;2.07;;;16.10;99.90;;;;;;4897619;29;20447;-75
2022/09/14 07:37:45;;;;;;;2.70;2.50;;;16.10;99.90;;;;;;4897917;29;20417;-75
2022/09/14 07:40:11;;;;;;;2.83;2.57;;;16.00;99.90;;;;;;4897917;29;20389;-76
2022/09/14 07:42:37;;;;;;;2.30;2.10;;;16.10;99.90;;;;;;4897677;29;20446;-75
2022/09/14 07:45:04;;;;;;;2.43;2.23;;;16.20;99.90;;;;;;4897322;29;20398;-75
2022/09/14 07:47:30;;;;;;;2.73;2.53;;;16.30;99.90;;;;;;4897723;29;20422;-75
2022/09/14 07:49:56;;;;;;;3.20;2.90;;;16.20;99.90;;;;;;4897722;29;20431;-75
2022/09/14 07:52:22;;;;;;;3.00;2.80;;;16.20;99.90;;;;;;4896604;29;20541;-76
2022/09/14 07:54:47;;;;;;;3.47;3.17;;;16.20;99.90;;;;;;4897547;29;20402;-75
2022/09/14 07:57:13;;;;;;;4.63;2.90;;;16.30;99.90;;;;;;4897775;29;20576;-75
2022/09/14 07:59:39;;;;;;;3.30;3.00;;;16.40;99.90;;;;;;4884210;29;20191;-76
2022/09/14 08:02:10;;;;;;;3.20;2.97;;;16.50;99.90;;;;;;4901358;29;20664;-75
2022/09/14 08:04:38;;;;;;;3.93;3.50;;;16.50;99.90;;;;;;4900936;29;20657;-75
2022/09/14 08:07:04;;;;;;;3.70;3.40;;;16.40;99.90;;;;;;4901003;29;20478;-75
2022/09/14 08:09:29;;;;;;;4.27;3.63;;;16.40;99.90;;;;;;4901157;29;20427;-75
2022/09/14 08:11:56;;;;;;;3.50;3.00;;;16.50;99.90;;;;;;4899811;29;20445;-75
2022/09/14 08:14:21;;;;;;;4.17;3.80;;;16.60;99.90;;;;;;4900719;29;20182;-75
2022/09/14 08:16:47;;;;;;;3.90;3.60;;;16.70;99.90;;;;;;4901080;29;20414;-75
2022/09/14 08:19:15;;;;;;;4.00;3.70;;;16.80;99.90;;;;;;4901142;29;20206;-75
2022/09/14 08:21:42;;;;;;;3.43;3.13;;;16.80;99.90;;;;;;4901113;29;20640;-75
2022/09/14 08:24:10;;;;;;;3.70;3.40;;;16.80;99.90;;;;;;4900729;29;20406;-75
2022/09/14 08:26:36;;;;;;;4.43;4.03;;;16.60;99.90;;;;;;4900744;29;20418;-75
2022/09/14 08:29:03;;;;;;;3.93;3.63;;;16.60;99.90;;;;;;4900519;29;20479;-75
2022/09/14 08:31:30;;;;;;;4.67;4.23;;;16.60;99.90;;;;;;4899552;29;20233;-75
2022/09/14 08:33:58;;;;;;;3.87;3.47;;;16.40;99.90;;;;;;4900397;29;20402;-74
2022/09/14 08:36:26;;;;;;;4.93;4.10;;;16.40;99.90;;;;;;4900492;29;20441;-75
2022/09/14 08:38:52;;;;;;;3.80;3.50;;;16.40;99.90;;;;;;4900436;29;20446;-75
2022/09/14 08:41:40;;;;;;;3.70;3.40;;;16.50;99.90;;;;;;4900458;29;20435;-75
2022/09/14 08:44:15;;;;;;;5.00;3.53;;;16.60;99.90;;;;;;4900489;29;20189;-76
2022/09/14 08:47:08;;;;;;;4.70;4.23;;;16.70;99.90;;;;;;4899199;29;20442;-75
2022/09/14 08:50:04;;;;;;;3.90;3.43;;;16.80;99.90;;;;;;4899158;29;20438;-75
2022/09/14 08:52:51;;;;;;;3.93;3.63;;;16.70;99.90;;;;;;4899271;29;20988;-76
2022/09/14 08:55:40;;;;;;;4.37;3.80;;;16.80;99.90;;;;;;4883109;29;20405;-75
2022/09/14 08:58:09;;;;;;;4.27;3.90;;;16.50;99.90;;;;;;4900360;29;20394;-75
2022/09/14 09:00:46;;;;;;;4.83;3.80;;;16.50;99.90;;;;;;4898979;29;21008;-75
2022/09/14 09:03:22;;;;;;;4.73;3.53;;;16.60;99.90;;;;;;4900092;29;20976;-75
2022/09/14 09:06:14;;;;;;;6.60;6.20;;;16.70;99.90;;;;;;4899853;29;20443;-75
2022/09/14 09:09:18;;;;;;;5.40;4.90;;;16.80;99.90;;;;;;4899397;29;20518;-75
2022/09/14 09:11:47;;;;;;;4.80;4.40;;;16.90;99.90;;;;;;4900223;29;20830;-75
2022/09/14 09:14:33;;;;;;;5.73;5.23;;;16.70;99.90;;;;;;4899860;29;20454;-75
2022/09/14 09:17:04;;;;;;;5.43;4.93;;;16.50;99.90;;;;;;4900050;29;20428;-74
2022/09/14 09:19:40;;;;;;;5.23;4.80;;;16.50;99.90;;;;;;4898707;29;20434;-75
2022/09/14 09:22:14;;;;;;;5.40;4.80;;;16.60;99.90;;;;;;4899970;29;20763;-75
2022/09/14 09:24:43;;;;;;;5.67;5.10;;;16.70;99.90;;;;;;4899502;29;20410;-75
2022/09/14 09:27:13;;;;;;;5.30;4.80;;;16.70;99.90;;;;;;4899490;29;20468;-74
2022/09/14 09:29:39;;;;;;;6.00;5.27;;;16.90;99.90;;;;;;4899759;29;20425;-75
2022/09/14 09:32:17;;;;;;;5.50;5.10;;;16.90;99.90;;;;;;4899460;29;20481;-75
2022/09/14 09:34:43;;;;;;;5.03;4.63;;;17.00;99.90;;;;;;4899419;29;20175;-75
2022/09/14 09:37:17;;;;;;;4.87;4.43;;;16.90;99.90;;;;;;4899381;29;20421;-75
2022/09/14 09:39:43;;;;;;;5.97;5.00;;;16.60;99.90;;;;;;4899401;29;20182;-74
2022/09/14 09:42:23;;;;;;;9.13;5.40;;;16.60;99.90;;;;;;4899513;29;20423;-74
2022/09/14 09:45:08;;;;;;;5.93;4.40;;;16.60;99.90;;;;;;4899083;29;20936;-74
2022/09/14 09:47:37;;;;;;;5.87;5.00;;;16.70;99.90;;;;;;4899085;29;20442;-75
2022/09/14 09:50:19;;;;;;;7.00;6.23;;;16.70;99.90;;;;;;4899140;29;20533;-75
2022/09/14 09:52:53;;;;;;;6.60;6.00;;;16.50;99.90;;;;;;4899397;29;20419;-75
2022/09/14 09:55:21;;;;;;;7.33;6.70;;;16.50;99.90;;;;;;4898848;29;20439;-75
2022/09/14 09:57:47;;;;;;;11.00;7.70;;;16.40;99.90;;;;;;4898800;29;20794;-75
2022/09/14 10:00:13;;;;;;;9.00;8.10;;;16.30;99.90;;;;;;4899161;29;20411;-74
2022/09/14 10:02:39;;;;;;;8.70;7.80;;;16.30;99.90;;;;;;4899139;29;20179;-75
2022/09/14 10:05:21;;;;;;;10.37;9.30;;;16.20;99.90;;;;;;4898519;29;20454;-75
2022/09/14 10:08:01;;;;;;;10.17;7.97;;;16.30;99.90;;;;;;4898770;29;20457;-75
2022/09/14 10:10:33;;;;;;;11.30;10.10;;;16.30;99.90;;;;;;4898915;29;20812;-75
2022/09/14 10:12:59;;;;;;;10.73;9.70;;;16.40;99.90;;;;;;4898784;29;20422;-75
2022/09/14 10:15:28;;;;;;;11.07;9.50;;;16.40;99.90;;;;;;4898590;29;20477;-75
2022/09/14 10:17:54;;;;;;;12.97;8.37;;;16.60;99.90;;;;;;4898537;29;20396;-74
2022/09/14 10:20:22;;;;;;;8.10;6.70;;;16.60;99.90;;;;;;4896962;29;20390;-75
2022/09/14 10:22:47;;;;;;;8.97;7.33;;;16.70;99.90;;;;;;4899003;29;20181;-74
2022/09/14 10:25:13;;;;;;;7.10;6.40;;;16.70;99.90;;;;;;4897397;29;20394;-74
2022/09/14 10:27:55;;;;;;;10.60;6.53;;;16.60;99.90;;;;;;4898251;29;20687;-74
2022/09/14 10:30:25;;;;;;;9.63;7.43;;;16.60;99.90;;;;;;4898795;29;20597;-74
2022/09/14 10:32:59;;;;;;;8.07;7.37;;;16.60;99.90;;;;;;4898658;29;20401;-75
2022/09/14 10:35:38;;;;;;;5.87;5.37;;;16.50;99.90;;;;;;4898304;29;20916;-75
2022/09/14 10:38:16;;;;;;;6.37;5.77;;;16.40;99.90;;;;;;4897001;29;20429;-75
2022/09/14 10:40:46;;;;;;;5.87;5.37;;;16.40;99.90;;;;;;4897057;29;20478;-74
2022/09/14 10:43:18;;;;;;;7.30;6.70;;;16.40;99.90;;;;;;4898420;29;20787;-74
2022/09/14 10:46:00;;;;;;;6.47;5.67;;;16.40;99.90;;;;;;4896768;29;20453;-75
2022/09/14 10:48:39;;;;;;;7.00;5.50;;;16.40;99.90;;;;;;4898428;29;20428;-75
2022/09/14 10:51:36;;;;;;;6.83;6.10;;;16.30;99.90;;;;;;4898088;29;20958;-75
2022/09/14 10:54:37;;;;;;;7.00;6.20;;;16.30;99.90;;;;;;4897660;29;20398;-75
2022/09/14 10:57:16;;;;;;;6.60;5.90;;;16.30;99.90;;;;;;4877527;29;20450;-75
2022/09/14 10:59:56;;;;;;;7.13;5.97;;;16.30;99.90;;;;;;4895879;29;20510;-74
2022/09/14 11:02:25;;;;;;;6.10;5.60;;;16.40;99.90;;;;;;4898236;29;20390;-74
2022/09/14 11:05:00;;;;;;;6.30;5.80;;;16.50;99.90;;;;;;4897552;29;20427;-74
2022/09/14 11:07:39;;;;;;;5.83;5.27;;;16.60;99.90;;;;;;4898137;29;20420;-75
2022/09/14 11:10:15;;;;;;;4.47;4.17;;;16.70;99.90;;;;;;4897800;29;20398;-75
2022/09/14 11:12:53;;;;;;;4.03;3.40;;;16.80;99.90;;;;;;4897172;29;20405;-76
2022/09/14 11:15:33;;;;;;;6.57;4.00;;;16.90;99.90;;;;;;4897760;29;20411;-74
2022/09/14 11:18:29;;;;;;;4.20;3.60;;;16.80;99.90;;;;;;4898191;29;20384;-75
2022/09/14 11:21:33;;;;;;;4.63;3.43;;;16.80;99.90;;;;;;4897996;29;20393;-75
2022/09/14 11:24:16;;;;;;;3.97;3.50;;;16.80;99.90;;;;;;4876951;29;20526;-75
2022/09/14 11:26:53;;;;;;;3.90;3.60;;;17.00;99.90;;;;;;4895241;29;20428;-75
2022/09/14 11:29:30;;;;;;;4.00;3.73;;;17.00;99.90;;;;;;4898010;29;20530;-75
2022/09/14 11:32:10;;;;;;;4.80;4.10;;;17.30;99.90;;;;;;4897921;29;20437;-74
2022/09/14 11:34:47;;;;;;;6.00;5.00;;;17.30;99.90;;;;;;4901268;29;20835;-75
2022/09/14 11:37:19;;;;;;;4.50;4.10;;;17.40;99.90;;;;;;4901707;29;20428;-75
2022/09/14 11:39:54;;;;;;;5.57;4.93;;;17.50;99.90;;;;;;4901619;29;20826;-74
2022/09/14 11:42:21;;;;;;;6.90;4.90;;;17.40;99.90;;;;;;4901438;29;20429;-75
2022/09/14 11:44:54;;;;;;;4.73;4.33;;;17.50;99.90;;;;;;4901179;29;20955;-75
2022/09/14 11:47:21;;;;;;;6.30;5.80;;;17.60;99.90;;;;;;4901676;29;20442;-75
2022/09/14 11:50:00;;;;;;;5.77;5.17;;;17.60;99.90;;;;;;4900310;29;20490;-74
2022/09/14 11:52:29;;;;;;;5.43;5.03;;;17.60;99.90;;;;;;4901259;29;20970;-75
2022/09/14 11:54:55;;;;;;;5.47;4.97;;;17.60;99.90;;;;;;4899844;29;20917;-75
2022/09/14 11:57:29;;;;;;;6.23;5.73;;;17.70;99.90;;;;;;4901303;29;20895;-76
2022/09/14 11:59:57;;;;;;;5.90;5.40;;;17.70;99.90;;;;;;4901177;29;20426;-75
2022/09/14 12:02:29;;;;;;;6.90;6.30;;;17.70;99.90;;;;;;4901211;29;20437;-75
2022/09/14 12:05:03;;;;;;;6.00;5.50;;;17.50;99.90;;;;;;4901246;29;20864;-76
2022/09/14 12:07:41;;;;;;;9.40;6.50;;;17.50;99.90;;;;;;4901228;29;20409;-75
2022/09/14 12:10:13;;;;;;;7.40;6.67;;;17.50;99.90;;;;;;4900053;29;20405;-75
2022/09/14 12:13:04;;;;;;;7.27;6.63;;;17.60;99.90;;;;;;4900880;29;20506;-74
2022/09/14 12:15:34;;;;;;;8.27;6.93;;;17.60;99.90;;;;;;4897603;29;20483;-75
2022/09/14 12:18:06;;;;;;;7.80;7.10;;;17.60;99.90;;;;;;4901108;29;20479;-75
2022/09/14 12:20:47;;;;;;;8.30;7.60;;;17.50;99.90;;;;;;4901011;29;20420;-75
2022/09/14 12:23:21;;;;;;;8.50;7.70;;;17.60;99.90;;;;;;4900842;29;20397;-76
2022/09/14 12:25:56;;;;;;;7.80;7.00;;;17.60;99.90;;;;;;4900468;29;20448;-74
2022/09/14 12:28:49;;;;;;;7.77;7.00;;;17.60;99.90;;;;;;4900699;29;20438;-75
2022/09/14 12:31:38;;;;;;;7.83;7.20;;;17.30;99.90;;;;;;4898728;29;20815;-75
2022/09/14 12:34:19;;;;;;;7.63;7.03;;;17.40;99.90;;;;;;4900603;29;20479;-76
2022/09/14 12:36:44;;;;;;;8.07;7.30;;;17.30;99.90;;;;;;4899258;29;20919;-75
2022/09/14 12:39:25;;;;;;;7.50;6.90;;;17.20;99.90;;;;;;4900773;29;20486;-75
2022/09/14 12:41:50;;;;;;;8.20;7.50;;;17.10;99.90;;;;;;4900677;29;20191;-75
2022/09/14 12:44:40;;;;;;;8.80;8.00;;;17.10;99.90;;;;;;4898742;29;20417;-75
2022/09/14 12:47:24;;;;;;;8.40;7.70;;;17.00;99.90;;;;;;4900742;29;20273;-74
2022/09/14 12:50:02;;;;;;;8.80;7.93;;;17.00;99.90;;;;;;4900419;29;20419;-76
2022/09/14 12:52:43;;;;;;;9.27;8.47;;;17.00;99.90;;;;;;4900441;29;20463;-75
2022/09/14 12:55:30;;;;;;;8.27;7.57;;;17.00;99.90;;;;;;4900365;29;20414;-75
2022/09/14 12:58:22;;;;;;;9.83;7.80;;;17.10;99.90;;;;;;4900336;29;20462;-75
2022/09/14 13:00:58;;;;;;;8.97;8.07;;;17.10;99.90;;;;;;4900172;29;20386;-75